sensor_id;sensor_type;location;lat;lon;timestamp;P1;durP1;ratioP1;P2;durP2;ratioP2
6434;SDS011;3250;42.694;23.278;2022-10-04T00:04:11;4.27;;;2.00;;
6434;SDS011;3250;42.694;23.278;2022-10-04T00:06:46;3.43;;;1.80;;
6434;SDS011;3250;42.694;23.278;2022-10-04T00:09:30;3.93;;;2.03;;
6434;SDS011;3250;42.694;23.278;2022-10-04T00:12:00;3.33;;;1.93;;
6434;SDS011;3250;42.694;23.278;2022-10-04T00:14:34;2.83;;;2.20;;
6434;SDS011;3250;42.694;23.278;2022-10-04T00:17:09;1.97;;;1.63;;
6434;SDS011;3250;42.694;23.278;2022-10-04T00:19:42;5.13;;;2.27;;
6434;SDS011;3250;42.694;23.278;2022-10-04T00:22:30;2.40;;;1.87;;
6434;SDS011;3250;42.694;23.278;2022-10-04T00:27:31;7.67;;;2.03;;
6434;SDS011;3250;42.694;23.278;2022-10-04T00:34:53;4.00;;;1.67;;
6434;SDS011;3250;42.694;23.278;2022-10-04T00:37:19;3.80;;;1.50;;
6434;SDS011;3250;42.694;23.278;2022-10-04T00:40:09;1.67;;;1.50;;
6434;SDS011;3250;42.694;23.278;2022-10-04T00:47:57;5.47;;;1.40;;
6434;SDS011;3250;42.694;23.278;2022-10-04T00:50:30;2.37;;;1.60;;
6434;SDS011;3250;42.694;23.278;2022-10-04T00:53:11;1.70;;;1.60;;
6434;SDS011;3250;42.694;23.278;2022-10-04T00:55:45;1.57;;;1.43;;
6434;SDS011;3250;42.694;23.278;2022-10-04T00:58:25;2.33;;;1.40;;
6434;SDS011;3250;42.694;23.278;2022-10-04T01:00:56;2.60;;;1.37;;
6434;SDS011;3250;42.694;23.278;2022-10-04T01:03:34;2.97;;;1.77;;
6434;SDS011;3250;42.694;23.278;2022-10-04T01:06:04;4.50;;;1.53;;
6434;SDS011;3250;42.694;23.278;2022-10-04T01:08:38;2.70;;;1.20;;
6434;SDS011;3250;42.694;23.278;2022-10-04T01:11:12;2.20;;;1.20;;
6434;SDS011;3250;42.694;23.278;2022-10-04T01:13:44;2.80;;;1.67;;
6434;SDS011;3250;42.694;23.278;2022-10-04T01:16:17;1.37;;;1.27;;
6434;SDS011;3250;42.694;23.278;2022-10-04T01:18:46;1.73;;;1.50;;
6434;SDS011;3250;42.694;23.278;2022-10-04T01:23:50;6.30;;;1.77;;
6434;SDS011;3250;42.694;23.278;2022-10-04T01:31:35;5.63;;;1.63;;
6434;SDS011;3250;42.694;23.278;2022-10-04T01:34:03;3.57;;;1.10;;
6434;SDS011;3250;42.694;23.278;2022-10-04T01:36:30;1.37;;;1.30;;
6434;SDS011;3250;42.694;23.278;2022-10-04T01:38:56;1.67;;;1.23;;
6434;SDS011;3250;42.694;23.278;2022-10-04T01:44:06;1.40;;;1.30;;
6434;SDS011;3250;42.694;23.278;2022-10-04T01:46:36;4.53;;;1.50;;
6434;SDS011;3250;42.694;23.278;2022-10-04T01:49:06;1.47;;;1.20;;
6434;SDS011;3250;42.694;23.278;2022-10-04T01:51:37;2.20;;;1.20;;
6434;SDS011;3250;42.694;23.278;2022-10-04T01:54:19;2.20;;;1.20;;
6434;SDS011;3250;42.694;23.278;2022-10-04T01:59:27;3.07;;;1.47;;
6434;SDS011;3250;42.694;23.278;2022-10-04T02:02:01;1.20;;;1.10;;
6434;SDS011;3250;42.694;23.278;2022-10-04T02:04:34;3.00;;;1.30;;
6434;SDS011;3250;42.694;23.278;2022-10-04T02:07:03;2.33;;;1.23;;
6434;SDS011;3250;42.694;23.278;2022-10-04T02:09:37;1.93;;;1.30;;
6434;SDS011;3250;42.694;23.278;2022-10-04T02:12:07;1.37;;;1.27;;
6434;SDS011;3250;42.694;23.278;2022-10-04T02:14:34;2.17;;;1.70;;
6434;SDS011;3250;42.694;23.278;2022-10-04T02:17:01;1.33;;;1.23;;
6434;SDS011;3250;42.694;23.278;2022-10-04T02:19:33;1.90;;;1.40;;
6434;SDS011;3250;42.694;23.278;2022-10-04T02:22:04;4.00;;;1.60;;
6434;SDS011;3250;42.694;23.278;2022-10-04T02:24:32;2.63;;;1.90;;
6434;SDS011;3250;42.694;23.278;2022-10-04T02:26:59;1.57;;;1.47;;
6434;SDS011;3250;42.694;23.278;2022-10-04T02:29:25;4.93;;;1.90;;
6434;SDS011;3250;42.694;23.278;2022-10-04T02:31:50;3.80;;;1.70;;
6434;SDS011;3250;42.694;23.278;2022-10-04T02:34:35;3.37;;;1.60;;
6434;SDS011;3250;42.694;23.278;2022-10-04T02:37:02;4.10;;;1.83;;
6434;SDS011;3250;42.694;23.278;2022-10-04T02:39:31;3.80;;;2.00;;
6434;SDS011;3250;42.694;23.278;2022-10-04T02:42:03;3.00;;;1.87;;
6434;SDS011;3250;42.694;23.278;2022-10-04T02:44:40;2.27;;;1.70;;
6434;SDS011;3250;42.694;23.278;2022-10-04T02:49:36;2.30;;;1.60;;
6434;SDS011;3250;42.694;23.278;2022-10-04T02:52:08;3.70;;;1.80;;
6434;SDS011;3250;42.694;23.278;2022-10-04T02:57:26;2.10;;;1.70;;
6434;SDS011;3250;42.694;23.278;2022-10-04T03:00:13;2.73;;;2.10;;
6434;SDS011;3250;42.694;23.278;2022-10-04T03:06:01;2.77;;;1.97;;
6434;SDS011;3250;42.694;23.278;2022-10-04T03:08:49;1.87;;;1.70;;
6434;SDS011;3250;42.694;23.278;2022-10-04T03:11:18;4.03;;;1.80;;
6434;SDS011;3250;42.694;23.278;2022-10-04T03:13:48;3.30;;;1.67;;
6434;SDS011;3250;42.694;23.278;2022-10-04T03:16:15;2.20;;;1.60;;
6434;SDS011;3250;42.694;23.278;2022-10-04T03:18:41;5.07;;;2.00;;
6434;SDS011;3250;42.694;23.278;2022-10-04T03:21:10;2.87;;;2.20;;
6434;SDS011;3250;42.694;23.278;2022-10-04T03:23:38;2.97;;;2.30;;
6434;SDS011;3250;42.694;23.278;2022-10-04T03:29:10;2.13;;;1.90;;
6434;SDS011;3250;42.694;23.278;2022-10-04T03:31:45;3.73;;;2.00;;
6434;SDS011;3250;42.694;23.278;2022-10-04T03:34:16;3.70;;;1.97;;
6434;SDS011;3250;42.694;23.278;2022-10-04T03:36:45;4.73;;;2.20;;
6434;SDS011;3250;42.694;23.278;2022-10-04T03:39:17;8.53;;;2.43;;
6434;SDS011;3250;42.694;23.278;2022-10-04T03:41:51;2.80;;;2.10;;
6434;SDS011;3250;42.694;23.278;2022-10-04T03:44:17;5.23;;;3.20;;
6434;SDS011;3250;42.694;23.278;2022-10-04T03:46:43;5.57;;;3.10;;
6434;SDS011;3250;42.694;23.278;2022-10-04T03:49:17;5.77;;;3.70;;
6434;SDS011;3250;42.694;23.278;2022-10-04T03:51:54;5.27;;;3.17;;
6434;SDS011;3250;42.694;23.278;2022-10-04T03:54:21;7.10;;;4.20;;
6434;SDS011;3250;42.694;23.278;2022-10-04T03:56:51;7.90;;;4.43;;
6434;SDS011;3250;42.694;23.278;2022-10-04T03:59:18;4.57;;;3.17;;
6434;SDS011;3250;42.694;23.278;2022-10-04T04:01:49;4.33;;;3.00;;
6434;SDS011;3250;42.694;23.278;2022-10-04T04:07:06;4.87;;;3.40;;
6434;SDS011;3250;42.694;23.278;2022-10-04T04:12:24;6.80;;;3.57;;
6434;SDS011;3250;42.694;23.278;2022-10-04T04:14:59;8.43;;;3.17;;
6434;SDS011;3250;42.694;23.278;2022-10-04T04:19:55;3.03;;;2.30;;
6434;SDS011;3250;42.694;23.278;2022-10-04T04:22:23;3.23;;;2.50;;
6434;SDS011;3250;42.694;23.278;2022-10-04T04:25:05;6.10;;;2.60;;
6434;SDS011;3250;42.694;23.278;2022-10-04T04:27:36;4.20;;;2.33;;
6434;SDS011;3250;42.694;23.278;2022-10-04T04:30:04;3.40;;;2.30;;
6434;SDS011;3250;42.694;23.278;2022-10-04T04:32:34;4.23;;;2.53;;
6434;SDS011;3250;42.694;23.278;2022-10-04T04:35:20;4.87;;;2.70;;
6434;SDS011;3250;42.694;23.278;2022-10-04T04:40:50;3.50;;;2.77;;
6434;SDS011;3250;42.694;23.278;2022-10-04T04:43:20;4.03;;;3.07;;
6434;SDS011;3250;42.694;23.278;2022-10-04T04:45:48;8.30;;;4.80;;
6434;SDS011;3250;42.694;23.278;2022-10-04T04:48:15;9.47;;;5.03;;
6434;SDS011;3250;42.694;23.278;2022-10-04T04:50:42;10.80;;;6.07;;
6434;SDS011;3250;42.694;23.278;2022-10-04T04:53:31;13.20;;;7.27;;
6434;SDS011;3250;42.694;23.278;2022-10-04T04:55:58;23.13;;;6.60;;
6434;SDS011;3250;42.694;23.278;2022-10-04T04:58:27;10.17;;;5.00;;
6434;SDS011;3250;42.694;23.278;2022-10-04T05:03:30;13.77;;;6.50;;
6434;SDS011;3250;42.694;23.278;2022-10-04T05:05:57;12.07;;;5.53;;
6434;SDS011;3250;42.694;23.278;2022-10-04T05:08:27;8.30;;;4.50;;
6434;SDS011;3250;42.694;23.278;2022-10-04T05:14:00;8.03;;;4.63;;
6434;SDS011;3250;42.694;23.278;2022-10-04T05:16:47;5.90;;;3.50;;
6434;SDS011;3250;42.694;23.278;2022-10-04T05:19:16;8.40;;;3.50;;
6434;SDS011;3250;42.694;23.278;2022-10-04T05:21:46;11.50;;;3.23;;
6434;SDS011;3250;42.694;23.278;2022-10-04T05:26:56;7.00;;;2.83;;
6434;SDS011;3250;42.694;23.278;2022-10-04T05:29:26;4.18;;;3.03;;
6434;SDS011;3250;42.694;23.278;2022-10-04T05:34:37;5.90;;;2.53;;
6434;SDS011;3250;42.694;23.278;2022-10-04T05:37:05;8.70;;;5.20;;
6434;SDS011;3250;42.694;23.278;2022-10-04T05:42:40;7.78;;;4.38;;
6434;SDS011;3250;42.694;23.278;2022-10-04T05:45:11;8.30;;;2.88;;
6434;SDS011;3250;42.694;23.278;2022-10-04T05:47:45;7.32;;;2.53;;
6434;SDS011;3250;42.694;23.278;2022-10-04T05:50:20;5.00;;;2.20;;
6434;SDS011;3250;42.694;23.278;2022-10-04T05:53:08;2.15;;;1.85;;
6434;SDS011;3250;42.694;23.278;2022-10-04T05:55:42;2.78;;;1.75;;
6434;SDS011;3250;42.694;23.278;2022-10-04T06:12:12;1.20;;;1.10;;
6434;SDS011;3250;42.694;23.278;2022-10-04T06:23:19;5.60;;;2.22;;
6434;SDS011;3250;42.694;23.278;2022-10-04T06:25:49;3.53;;;1.63;;
6434;SDS011;3250;42.694;23.278;2022-10-04T06:28:25;1.70;;;1.52;;
6434;SDS011;3250;42.694;23.278;2022-10-04T06:31:12;3.97;;;1.50;;
6434;SDS011;3250;42.694;23.278;2022-10-04T06:41:40;5.82;;;2.15;;
6434;SDS011;3250;42.694;23.278;2022-10-04T06:49:56;2.40;;;1.25;;
6434;SDS011;3250;42.694;23.278;2022-10-04T06:53:14;2.97;;;1.48;;
6434;SDS011;3250;42.694;23.278;2022-10-04T06:58:30;6.80;;;2.17;;
6434;SDS011;3250;42.694;23.278;2022-10-04T07:03:51;2.17;;;1.33;;
6434;SDS011;3250;42.694;23.278;2022-10-04T07:06:32;1.70;;;1.60;;
6434;SDS011;3250;42.694;23.278;2022-10-04T07:09:05;1.45;;;1.35;;
6434;SDS011;3250;42.694;23.278;2022-10-04T07:11:58;1.67;;;1.40;;
6434;SDS011;3250;42.694;23.278;2022-10-04T07:14:35;2.60;;;1.48;;
6434;SDS011;3250;42.694;23.278;2022-10-04T07:17:12;3.05;;;1.30;;
6434;SDS011;3250;42.694;23.278;2022-10-04T07:19:50;2.75;;;1.58;;
6434;SDS011;3250;42.694;23.278;2022-10-04T07:25:14;2.88;;;1.30;;
6434;SDS011;3250;42.694;23.278;2022-10-04T07:27:59;3.05;;;1.10;;
6434;SDS011;3250;42.694;23.278;2022-10-04T07:30:59;3.95;;;2.05;;
6434;SDS011;3250;42.694;23.278;2022-10-04T07:33:28;3.30;;;2.53;;
6434;SDS011;3250;42.694;23.278;2022-10-04T07:36:06;2.95;;;2.38;;
6434;SDS011;3250;42.694;23.278;2022-10-04T07:39:00;3.67;;;2.00;;
6434;SDS011;3250;42.694;23.278;2022-10-04T07:41:30;2.75;;;1.50;;
6434;SDS011;3250;42.694;23.278;2022-10-04T07:47:01;2.88;;;1.60;;
6434;SDS011;3250;42.694;23.278;2022-10-04T07:49:54;1.63;;;1.40;;
6434;SDS011;3250;42.694;23.278;2022-10-04T07:52:29;1.48;;;1.38;;
6434;SDS011;3250;42.694;23.278;2022-10-04T08:00:45;2.20;;;1.45;;
6434;SDS011;3250;42.694;23.278;2022-10-04T08:06:08;1.55;;;1.45;;
6434;SDS011;3250;42.694;23.278;2022-10-04T08:08:49;2.57;;;1.67;;
6434;SDS011;3250;42.694;23.278;2022-10-04T08:11:48;1.80;;;1.40;;
6434;SDS011;3250;42.694;23.278;2022-10-04T08:14:23;2.47;;;1.50;;
6434;SDS011;3250;42.694;23.278;2022-10-04T08:17:01;2.08;;;1.50;;
6434;SDS011;3250;42.694;23.278;2022-10-04T08:22:12;3.70;;;1.80;;
6434;SDS011;3250;42.694;23.278;2022-10-04T08:27:45;2.03;;;1.50;;
6434;SDS011;3250;42.694;23.278;2022-10-04T08:38:49;1.73;;;1.63;;
6434;SDS011;3250;42.694;23.278;2022-10-04T08:41:33;2.22;;;1.60;;
6434;SDS011;3250;42.694;23.278;2022-10-04T09:10:19;3.00;;;1.63;;
6434;SDS011;3250;42.694;23.278;2022-10-04T09:26:54;4.57;;;1.65;;
6434;SDS011;3250;42.694;23.278;2022-10-04T09:32:19;1.92;;;1.40;;
6434;SDS011;3250;42.694;23.278;2022-10-04T09:52:04;4.65;;;1.67;;
6434;SDS011;3250;42.694;23.278;2022-10-04T10:01:18;4.40;;;1.92;;
6434;SDS011;3250;42.694;23.278;2022-10-04T10:09:14;2.53;;;1.80;;
6434;SDS011;3250;42.694;23.278;2022-10-04T10:23:44;3.45;;;1.92;;
6434;SDS011;3250;42.694;23.278;2022-10-04T10:31:26;2.53;;;1.98;;
6434;SDS011;3250;42.694;23.278;2022-10-04T10:39:37;2.20;;;2.00;;
6434;SDS011;3250;42.694;23.278;2022-10-04T11:02:27;1.92;;;1.75;;
6434;SDS011;3250;42.694;23.278;2022-10-04T11:34:07;6.22;;;3.53;;
6434;SDS011;3250;42.694;23.278;2022-10-04T12:10:28;4.38;;;1.77;;
6434;SDS011;3250;42.694;23.278;2022-10-04T12:15:59;2.75;;;1.83;;
6434;SDS011;3250;42.694;23.278;2022-10-04T12:30:10;1.70;;;1.60;;
6434;SDS011;3250;42.694;23.278;2022-10-04T12:35:33;3.15;;;1.67;;
6434;SDS011;3250;42.694;23.278;2022-10-04T12:38:30;4.60;;;2.08;;
6434;SDS011;3250;42.694;23.278;2022-10-04T12:52:23;4.97;;;3.10;;
6434;SDS011;3250;42.694;23.278;2022-10-04T12:57:49;2.10;;;1.85;;
6434;SDS011;3250;42.694;23.278;2022-10-04T13:00:20;2.17;;;1.80;;
6434;SDS011;3250;42.694;23.278;2022-10-04T13:08:28;3.75;;;2.42;;
6434;SDS011;3250;42.694;23.278;2022-10-04T13:30:23;4.25;;;2.50;;
6434;SDS011;3250;42.694;23.278;2022-10-04T13:54:28;3.63;;;2.50;;
6434;SDS011;3250;42.694;23.278;2022-10-04T14:00:10;10.23;;;3.57;;
6434;SDS011;3250;42.694;23.278;2022-10-04T14:02:59;6.85;;;3.25;;
6434;SDS011;3250;42.694;23.278;2022-10-04T14:09:02;10.95;;;3.63;;
6434;SDS011;3250;42.694;23.278;2022-10-04T14:14:45;8.27;;;5.70;;
6434;SDS011;3250;42.694;23.278;2022-10-04T14:23:49;8.10;;;4.03;;
6434;SDS011;3250;42.694;23.278;2022-10-04T14:26:57;23.90;;;12.90;;
6434;SDS011;3250;42.694;23.278;2022-10-04T15:11:45;8.73;;;4.90;;
6434;SDS011;3250;42.694;23.278;2022-10-04T15:17:00;5.70;;;3.37;;
6434;SDS011;3250;42.694;23.278;2022-10-04T15:22:30;9.70;;;3.50;;
6434;SDS011;3250;42.694;23.278;2022-10-04T15:25:35;9.40;;;3.27;;
6434;SDS011;3250;42.694;23.278;2022-10-04T15:47:58;31.27;;;13.03;;
6434;SDS011;3250;42.694;23.278;2022-10-04T16:06:27;20.70;;;11.93;;
6434;SDS011;3250;42.694;23.278;2022-10-04T16:15:00;24.53;;;13.17;;
6434;SDS011;3250;42.694;23.278;2022-10-04T16:25:53;92.23;;;52.50;;
6434;SDS011;3250;42.694;23.278;2022-10-04T16:28:21;78.90;;;47.87;;
6434;SDS011;3250;42.694;23.278;2022-10-04T16:31:17;54.57;;;35.03;;
6434;SDS011;3250;42.694;23.278;2022-10-04T16:34:24;63.57;;;38.13;;
6434;SDS011;3250;42.694;23.278;2022-10-04T16:37:01;33.60;;;19.73;;
6434;SDS011;3250;42.694;23.278;2022-10-04T16:39:39;33.43;;;15.80;;
6434;SDS011;3250;42.694;23.278;2022-10-04T16:48:57;48.17;;;24.87;;
6434;SDS011;3250;42.694;23.278;2022-10-04T16:51:36;39.83;;;22.30;;
6434;SDS011;3250;42.694;23.278;2022-10-04T16:54:28;25.83;;;13.10;;
6434;SDS011;3250;42.694;23.278;2022-10-04T17:02:23;23.30;;;12.20;;
6434;SDS011;3250;42.694;23.278;2022-10-04T17:05:23;27.77;;;14.77;;
6434;SDS011;3250;42.694;23.278;2022-10-04T17:13:53;25.37;;;12.23;;
6434;SDS011;3250;42.694;23.278;2022-10-04T17:16:27;31.83;;;15.97;;
6434;SDS011;3250;42.694;23.278;2022-10-04T17:34:59;38.37;;;21.73;;
6434;SDS011;3250;42.694;23.278;2022-10-04T17:40:55;41.87;;;26.50;;
6434;SDS011;3250;42.694;23.278;2022-10-04T17:46:39;56.70;;;27.10;;
6434;SDS011;3250;42.694;23.278;2022-10-04T17:52:14;63.83;;;36.10;;
6434;SDS011;3250;42.694;23.278;2022-10-04T17:55:13;44.50;;;24.90;;
6434;SDS011;3250;42.694;23.278;2022-10-04T18:00:18;48.37;;;26.53;;
6434;SDS011;3250;42.694;23.278;2022-10-04T18:10:48;31.40;;;17.87;;
6434;SDS011;3250;42.694;23.278;2022-10-04T18:13:22;32.63;;;19.57;;
6434;SDS011;3250;42.694;23.278;2022-10-04T18:15:50;46.97;;;20.70;;
6434;SDS011;3250;42.694;23.278;2022-10-04T18:18:55;37.53;;;21.57;;
6434;SDS011;3250;42.694;23.278;2022-10-04T18:24:20;39.60;;;18.97;;
6434;SDS011;3250;42.694;23.278;2022-10-04T18:27:12;26.90;;;15.00;;
6434;SDS011;3250;42.694;23.278;2022-10-04T18:29:55;32.53;;;15.70;;
6434;SDS011;3250;42.694;23.278;2022-10-04T18:32:33;28.63;;;16.67;;
6434;SDS011;3250;42.694;23.278;2022-10-04T18:35:01;30.17;;;17.93;;
6434;SDS011;3250;42.694;23.278;2022-10-04T18:37:49;36.37;;;21.17;;
6434;SDS011;3250;42.694;23.278;2022-10-04T18:40:19;22.57;;;14.97;;
6434;SDS011;3250;42.694;23.278;2022-10-04T18:42:51;44.23;;;23.67;;
6434;SDS011;3250;42.694;23.278;2022-10-04T18:47:47;25.60;;;14.43;;
6434;SDS011;3250;42.694;23.278;2022-10-04T18:50:37;31.40;;;14.03;;
6434;SDS011;3250;42.694;23.278;2022-10-04T18:56:11;21.40;;;11.87;;
6434;SDS011;3250;42.694;23.278;2022-10-04T19:07:26;28.10;;;17.17;;
6434;SDS011;3250;42.694;23.278;2022-10-04T19:12:47;39.67;;;19.93;;
6434;SDS011;3250;42.694;23.278;2022-10-04T19:21:21;33.93;;;19.50;;
6434;SDS011;3250;42.694;23.278;2022-10-04T19:26:58;27.77;;;15.60;;
6434;SDS011;3250;42.694;23.278;2022-10-04T19:32:28;25.23;;;12.70;;
6434;SDS011;3250;42.694;23.278;2022-10-04T19:40:47;22.43;;;8.80;;
6434;SDS011;3250;42.694;23.278;2022-10-04T19:43:20;18.13;;;7.83;;
6434;SDS011;3250;42.694;23.278;2022-10-04T19:46:20;17.50;;;7.63;;
6434;SDS011;3250;42.694;23.278;2022-10-04T19:49:02;19.83;;;7.83;;
6434;SDS011;3250;42.694;23.278;2022-10-04T19:51:45;18.70;;;7.20;;
6434;SDS011;3250;42.694;23.278;2022-10-04T19:54:17;17.27;;;7.77;;
6434;SDS011;3250;42.694;23.278;2022-10-04T19:57:00;16.97;;;7.87;;
6434;SDS011;3250;42.694;23.278;2022-10-04T19:59:47;16.73;;;8.33;;
6434;SDS011;3250;42.694;23.278;2022-10-04T20:02:15;20.37;;;8.93;;
6434;SDS011;3250;42.694;23.278;2022-10-04T20:04:41;19.10;;;7.33;;
6434;SDS011;3250;42.694;23.278;2022-10-04T20:17:41;25.43;;;12.03;;
6434;SDS011;3250;42.694;23.278;2022-10-04T20:20:08;21.60;;;11.27;;
6434;SDS011;3250;42.694;23.278;2022-10-04T20:26:05;21.10;;;11.70;;
6434;SDS011;3250;42.694;23.278;2022-10-04T20:38:46;21.67;;;13.37;;
6434;SDS011;3250;42.694;23.278;2022-10-04T20:43:56;32.93;;;14.17;;
6434;SDS011;3250;42.694;23.278;2022-10-04T20:46:24;26.50;;;13.53;;
6434;SDS011;3250;42.694;23.278;2022-10-04T20:48:51;28.57;;;13.00;;
6434;SDS011;3250;42.694;23.278;2022-10-04T20:51:18;34.97;;;15.00;;
6434;SDS011;3250;42.694;23.278;2022-10-04T20:53:46;25.97;;;14.33;;
6434;SDS011;3250;42.694;23.278;2022-10-04T20:58:53;25.60;;;13.07;;
6434;SDS011;3250;42.694;23.278;2022-10-04T21:01:28;21.83;;;13.57;;
6434;SDS011;3250;42.694;23.278;2022-10-04T21:06:54;20.17;;;12.37;;
6434;SDS011;3250;42.694;23.278;2022-10-04T21:09:21;14.83;;;8.53;;
6434;SDS011;3250;42.694;23.278;2022-10-04T21:11:51;19.37;;;9.97;;
6434;SDS011;3250;42.694;23.278;2022-10-04T21:14:28;14.27;;;8.50;;
6434;SDS011;3250;42.694;23.278;2022-10-04T21:17:43;11.90;;;8.43;;
6434;SDS011;3250;42.694;23.278;2022-10-04T21:19:52;13.90;;;8.53;;
6434;SDS011;3250;42.694;23.278;2022-10-04T21:29:54;11.67;;;7.17;;
6434;SDS011;3250;42.694;23.278;2022-10-04T21:32:21;12.57;;;6.60;;
6434;SDS011;3250;42.694;23.278;2022-10-04T21:34:47;10.77;;;6.13;;
6434;SDS011;3250;42.694;23.278;2022-10-04T21:37:13;11.57;;;6.97;;
6434;SDS011;3250;42.694;23.278;2022-10-04T21:39:39;10.83;;;5.17;;
6434;SDS011;3250;42.694;23.278;2022-10-04T21:42:05;10.37;;;5.30;;
6434;SDS011;3250;42.694;23.278;2022-10-04T21:44:30;11.53;;;6.13;;
6434;SDS011;3250;42.694;23.278;2022-10-04T21:46:56;10.40;;;6.57;;
6434;SDS011;3250;42.694;23.278;2022-10-04T21:49:21;9.43;;;4.60;;
6434;SDS011;3250;42.694;23.278;2022-10-04T21:51:46;7.10;;;5.00;;
6434;SDS011;3250;42.694;23.278;2022-10-04T21:54:12;8.67;;;5.23;;
6434;SDS011;3250;42.694;23.278;2022-10-04T21:56:37;8.70;;;5.50;;
6434;SDS011;3250;42.694;23.278;2022-10-04T21:59:03;9.47;;;6.27;;
6434;SDS011;3250;42.694;23.278;2022-10-04T22:01:28;11.03;;;7.23;;
6434;SDS011;3250;42.694;23.278;2022-10-04T22:03:54;10.07;;;6.73;;
6434;SDS011;3250;42.694;23.278;2022-10-04T22:06:19;11.40;;;6.47;;
6434;SDS011;3250;42.694;23.278;2022-10-04T22:08:45;7.40;;;6.17;;
6434;SDS011;3250;42.694;23.278;2022-10-04T22:11:10;6.93;;;5.43;;
6434;SDS011;3250;42.694;23.278;2022-10-04T22:13:36;7.83;;;5.60;;
6434;SDS011;3250;42.694;23.278;2022-10-04T22:16:02;10.87;;;4.40;;
6434;SDS011;3250;42.694;23.278;2022-10-04T22:18:28;10.50;;;3.97;;
6434;SDS011;3250;42.694;23.278;2022-10-04T22:20:54;14.03;;;8.03;;
6434;SDS011;3250;42.694;23.278;2022-10-04T22:23:21;17.23;;;7.07;;
6434;SDS011;3250;42.694;23.278;2022-10-04T22:25:48;11.73;;;6.50;;
6434;SDS011;3250;42.694;23.278;2022-10-04T22:30:46;13.60;;;7.03;;
6434;SDS011;3250;42.694;23.278;2022-10-04T22:33:47;9.17;;;6.73;;
6434;SDS011;3250;42.694;23.278;2022-10-04T22:36:19;13.23;;;6.80;;
6434;SDS011;3250;42.694;23.278;2022-10-04T22:41:33;14.53;;;9.57;;
6434;SDS011;3250;42.694;23.278;2022-10-04T22:44:12;16.67;;;10.40;;
6434;SDS011;3250;42.694;23.278;2022-10-04T22:46:39;12.03;;;7.73;;
6434;SDS011;3250;42.694;23.278;2022-10-04T22:49:14;10.13;;;5.20;;
6434;SDS011;3250;42.694;23.278;2022-10-04T22:51:41;9.03;;;5.37;;
6434;SDS011;3250;42.694;23.278;2022-10-04T22:54:12;11.57;;;5.53;;
6434;SDS011;3250;42.694;23.278;2022-10-04T22:56:40;9.03;;;5.73;;
6434;SDS011;3250;42.694;23.278;2022-10-04T22:59:10;12.10;;;6.50;;
6434;SDS011;3250;42.694;23.278;2022-10-04T23:01:37;10.27;;;6.43;;
6434;SDS011;3250;42.694;23.278;2022-10-04T23:04:02;10.33;;;5.60;;
6434;SDS011;3250;42.694;23.278;2022-10-04T23:06:28;8.73;;;5.07;;
6434;SDS011;3250;42.694;23.278;2022-10-04T23:08:54;5.83;;;5.00;;
6434;SDS011;3250;42.694;23.278;2022-10-04T23:11:19;8.57;;;4.70;;
6434;SDS011;3250;42.694;23.278;2022-10-04T23:13:44;10.10;;;6.07;;
6434;SDS011;3250;42.694;23.278;2022-10-04T23:16:20;7.30;;;5.40;;
6434;SDS011;3250;42.694;23.278;2022-10-04T23:18:46;8.27;;;5.40;;
6434;SDS011;3250;42.694;23.278;2022-10-04T23:21:22;8.23;;;5.10;;
6434;SDS011;3250;42.694;23.278;2022-10-04T23:23:49;12.20;;;5.10;;
6434;SDS011;3250;42.694;23.278;2022-10-04T23:26:21;7.03;;;5.27;;
6434;SDS011;3250;42.694;23.278;2022-10-04T23:28:48;17.17;;;5.30;;
6434;SDS011;3250;42.694;23.278;2022-10-04T23:31:21;9.57;;;4.90;;
6434;SDS011;3250;42.694;23.278;2022-10-04T23:33:49;7.37;;;5.10;;
6434;SDS011;3250;42.694;23.278;2022-10-04T23:36:15;15.67;;;7.17;;
6434;SDS011;3250;42.694;23.278;2022-10-04T23:39:01;13.57;;;6.17;;
6434;SDS011;3250;42.694;23.278;2022-10-04T23:41:26;10.33;;;5.77;;
6434;SDS011;3250;42.694;23.278;2022-10-04T23:43:51;15.27;;;6.60;;
6434;SDS011;3250;42.694;23.278;2022-10-04T23:46:17;12.23;;;5.77;;
6434;SDS011;3250;42.694;23.278;2022-10-04T23:48:45;15.03;;;6.23;;
6434;SDS011;3250;42.694;23.278;2022-10-04T23:51:13;17.37;;;6.23;;
6434;SDS011;3250;42.694;23.278;2022-10-04T23:53:41;9.60;;;5.77;;
6434;SDS011;3250;42.694;23.278;2022-10-04T23:56:15;10.13;;;5.83;;
6434;SDS011;3250;42.694;23.278;2022-10-04T23:58:44;10.07;;;5.70;;
